sensor_id;sensor_type;location;lat;lon;timestamp;pressure;altitude;pressure_sealevel;temperature;humidity
20019;BME280;10170;42.502;26.526;2022-11-15T00:00:55;100465.59;;;9.22;100.00
20019;BME280;10170;42.502;26.526;2022-11-15T00:03:26;100444.56;;;9.21;100.00
20019;BME280;10170;42.502;26.526;2022-11-15T00:05:54;100460.66;;;9.19;100.00
20019;BME280;10170;42.502;26.526;2022-11-15T00:08:20;100455.09;;;9.29;100.00
20019;BME280;10170;42.502;26.526;2022-11-15T00:10:57;100437.38;;;9.21;100.00
20019;BME280;10170;42.502;26.526;2022-11-15T00:13:24;100458.50;;;9.15;100.00
20019;BME280;10170;42.502;26.526;2022-11-15T00:15:51;100453.75;;;9.10;100.00
20019;BME280;10170;42.502;26.526;2022-11-15T00:18:18;100447.59;;;9.10;100.00
20019;BME280;10170;42.502;26.526;2022-11-15T00:20:45;100444.59;;;9.13;100.00
20019;BME280;10170;42.502;26.526;2022-11-15T00:23:12;100443.44;;;9.15;100.00
20019;BME280;10170;42.502;26.526;2022-11-15T00:25:39;100461.59;;;9.26;100.00
20019;BME280;10170;42.502;26.526;2022-11-15T00:28:06;100446.06;;;9.15;100.00
20019;BME280;10170;42.502;26.526;2022-11-15T00:30:33;100452.69;;;9.19;100.00
20019;BME280;10170;42.502;26.526;2022-11-15T00:33:04;100430.28;;;8.99;100.00
20019;BME280;10170;42.502;26.526;2022-11-15T00:35:34;100446.44;;;9.12;100.00
20019;BME280;10170;42.502;26.526;2022-11-15T00:38:01;100432.69;;;9.09;100.00
20019;BME280;10170;42.502;26.526;2022-11-15T00:40:29;100429.94;;;9.25;100.00
20019;BME280;10170;42.502;26.526;2022-11-15T00:42:56;100430.22;;;9.30;100.00
20019;BME280;10170;42.502;26.526;2022-11-15T00:45:23;100432.50;;;9.33;100.00
20019;BME280;10170;42.502;26.526;2022-11-15T00:47:50;100435.69;;;9.28;100.00
20019;BME280;10170;42.502;26.526;2022-11-15T00:50:17;100426.25;;;9.26;100.00
20019;BME280;10170;42.502;26.526;2022-11-15T00:52:44;100421.69;;;9.34;100.00
20019;BME280;10170;42.502;26.526;2022-11-15T00:55:15;100414.66;;;9.41;100.00
20019;BME280;10170;42.502;26.526;2022-11-15T00:57:42;100422.34;;;9.36;100.00
20019;BME280;10170;42.502;26.526;2022-11-15T01:00:10;100420.88;;;9.34;100.00
20019;BME280;10170;42.502;26.526;2022-11-15T01:02:37;100422.81;;;9.40;100.00
20019;BME280;10170;42.502;26.526;2022-11-15T01:05:09;100417.28;;;9.49;100.00
20019;BME280;10170;42.502;26.526;2022-11-15T01:07:36;100430.59;;;9.41;100.00
20019;BME280;10170;42.502;26.526;2022-11-15T01:10:04;100434.59;;;9.60;100.00
20019;BME280;10170;42.502;26.526;2022-11-15T01:12:31;100415.75;;;9.84;100.00
20019;BME280;10170;42.502;26.526;2022-11-15T01:14:58;100424.81;;;9.90;100.00
20019;BME280;10170;42.502;26.526;2022-11-15T01:17:25;100421.78;;;9.64;100.00
20019;BME280;10170;42.502;26.526;2022-11-15T01:19:52;100430.06;;;9.46;100.00
20019;BME280;10170;42.502;26.526;2022-11-15T01:22:19;100424.91;;;9.67;100.00
20019;BME280;10170;42.502;26.526;2022-11-15T01:24:45;100422.81;;;9.40;100.00
20019;BME280;10170;42.502;26.526;2022-11-15T01:27:12;100424.53;;;9.33;100.00
20019;BME280;10170;42.502;26.526;2022-11-15T01:29:39;100423.66;;;9.18;100.00
20019;BME280;10170;42.502;26.526;2022-11-15T01:32:06;100420.19;;;9.17;100.00
20019;BME280;10170;42.502;26.526;2022-11-15T01:34:32;100420.53;;;9.14;100.00
20019;BME280;10170;42.502;26.526;2022-11-15T01:37:00;100415.53;;;9.19;100.00
20019;BME280;10170;42.502;26.526;2022-11-15T01:39:27;100400.66;;;9.33;100.00
20019;BME280;10170;42.502;26.526;2022-11-15T01:41:53;100419.47;;;9.46;100.00
20019;BME280;10170;42.502;26.526;2022-11-15T01:47:34;100410.34;;;9.26;100.00
20019;BME280;10170;42.502;26.526;2022-11-15T01:50:08;100401.25;;;9.20;100.00
20019;BME280;10170;42.502;26.526;2022-11-15T01:52:37;100408.66;;;9.10;100.00
20019;BME280;10170;42.502;26.526;2022-11-15T01:55:26;100386.03;;;9.00;100.00
20019;BME280;10170;42.502;26.526;2022-11-15T01:57:57;100405.41;;;9.23;100.00
20019;BME280;10170;42.502;26.526;2022-11-15T02:00:26;100403.81;;;9.14;100.00
20019;BME280;10170;42.502;26.526;2022-11-15T02:02:53;100400.22;;;9.07;100.00
20019;BME280;10170;42.502;26.526;2022-11-15T02:05:19;100404.09;;;8.96;100.00
20019;BME280;10170;42.502;26.526;2022-11-15T02:07:47;100394.06;;;8.84;100.00
20019;BME280;10170;42.502;26.526;2022-11-15T02:10:20;100396.19;;;8.88;100.00
20019;BME280;10170;42.502;26.526;2022-11-15T02:12:47;100400.72;;;9.02;100.00
20019;BME280;10170;42.502;26.526;2022-11-15T02:15:15;100394.25;;;9.05;100.00
20019;BME280;10170;42.502;26.526;2022-11-15T02:17:51;100394.09;;;9.06;100.00
20019;BME280;10170;42.502;26.526;2022-11-15T02:31:03;100384.75;;;8.88;100.00
20019;BME280;10170;42.502;26.526;2022-11-15T02:33:50;100377.84;;;8.79;100.00
20019;BME280;10170;42.502;26.526;2022-11-15T02:41:39;100390.06;;;8.88;100.00
20019;BME280;10170;42.502;26.526;2022-11-15T02:44:12;100388.22;;;9.11;100.00
20019;BME280;10170;42.502;26.526;2022-11-15T02:46:46;100387.16;;;9.20;100.00
20019;BME280;10170;42.502;26.526;2022-11-15T02:49:34;100368.16;;;9.31;100.00
20019;BME280;10170;42.502;26.526;2022-11-15T02:52:02;100388.50;;;9.38;100.00
20019;BME280;10170;42.502;26.526;2022-11-15T02:54:31;100383.16;;;9.24;100.00
20019;BME280;10170;42.502;26.526;2022-11-15T02:57:13;100379.00;;;9.07;100.00
20019;BME280;10170;42.502;26.526;2022-11-15T03:02:44;100362.63;;;9.03;100.00
20019;BME280;10170;42.502;26.526;2022-11-15T03:05:34;100368.53;;;9.05;100.00
20019;BME280;10170;42.502;26.526;2022-11-15T03:11:12;100366.00;;;8.89;100.00
20019;BME280;10170;42.502;26.526;2022-11-15T03:19:35;100372.75;;;8.77;100.00
20019;BME280;10170;42.502;26.526;2022-11-15T03:22:06;100359.31;;;8.79;100.00
20019;BME280;10170;42.502;26.526;2022-11-15T03:24:37;100348.34;;;8.59;100.00
20019;BME280;10170;42.502;26.526;2022-11-15T03:27:06;100354.59;;;8.66;100.00
20019;BME280;10170;42.502;26.526;2022-11-15T03:29:39;100355.88;;;8.70;100.00
20019;BME280;10170;42.502;26.526;2022-11-15T03:32:22;100343.66;;;8.69;100.00
20019;BME280;10170;42.502;26.526;2022-11-15T03:35:09;100350.28;;;8.88;100.00
20019;BME280;10170;42.502;26.526;2022-11-15T03:40:09;100353.34;;;8.77;100.00
20019;BME280;10170;42.502;26.526;2022-11-15T03:43:02;100322.41;;;8.46;100.00
20019;BME280;10170;42.502;26.526;2022-11-15T03:45:39;100300.63;;;8.36;100.00
20019;BME280;10170;42.502;26.526;2022-11-15T03:50:40;100348.00;;;8.62;100.00
20019;BME280;10170;42.502;26.526;2022-11-15T03:53:07;100329.13;;;8.57;100.00
20019;BME280;10170;42.502;26.526;2022-11-15T03:55:34;100346.53;;;8.60;100.00
20019;BME280;10170;42.502;26.526;2022-11-15T03:58:01;100342.56;;;8.56;100.00
20019;BME280;10170;42.502;26.526;2022-11-15T04:00:28;100325.69;;;8.57;100.00
20019;BME280;10170;42.502;26.526;2022-11-15T04:02:55;100332.91;;;8.63;100.00
20019;BME280;10170;42.502;26.526;2022-11-15T04:05:22;100337.50;;;8.69;100.00
20019;BME280;10170;42.502;26.526;2022-11-15T04:07:49;100318.97;;;8.69;100.00
20019;BME280;10170;42.502;26.526;2022-11-15T04:10:16;100321.91;;;8.74;100.00
20019;BME280;10170;42.502;26.526;2022-11-15T04:12:44;100323.25;;;8.70;100.00
20019;BME280;10170;42.502;26.526;2022-11-15T04:15:16;100327.28;;;8.66;100.00
20019;BME280;10170;42.502;26.526;2022-11-15T04:17:51;100321.50;;;8.62;100.00
20019;BME280;10170;42.502;26.526;2022-11-15T04:20:27;100320.03;;;8.60;100.00
20019;BME280;10170;42.502;26.526;2022-11-15T04:23:19;100323.59;;;8.67;100.00
20019;BME280;10170;42.502;26.526;2022-11-15T04:26:16;100323.31;;;8.62;100.00
20019;BME280;10170;42.502;26.526;2022-11-15T04:28:44;100309.34;;;8.68;100.00
20019;BME280;10170;42.502;26.526;2022-11-15T04:31:29;100311.16;;;8.90;100.00
20019;BME280;10170;42.502;26.526;2022-11-15T04:33:56;100312.31;;;8.73;100.00
20019;BME280;10170;42.502;26.526;2022-11-15T04:36:23;100300.13;;;8.64;100.00
20019;BME280;10170;42.502;26.526;2022-11-15T04:39:09;100318.66;;;8.86;100.00
20019;BME280;10170;42.502;26.526;2022-11-15T04:41:36;100307.56;;;8.83;100.00
20019;BME280;10170;42.502;26.526;2022-11-15T04:44:03;100318.13;;;8.91;100.00
20019;BME280;10170;42.502;26.526;2022-11-15T04:46:30;100314.50;;;8.84;100.00
20019;BME280;10170;42.502;26.526;2022-11-15T04:48:57;100307.81;;;8.73;100.00
20019;BME280;10170;42.502;26.526;2022-11-15T04:51:25;100314.19;;;8.87;100.00
20019;BME280;10170;42.502;26.526;2022-11-15T04:53:52;100303.63;;;8.79;100.00
20019;BME280;10170;42.502;26.526;2022-11-15T04:56:19;100303.31;;;8.96;100.00
20019;BME280;10170;42.502;26.526;2022-11-15T04:58:48;100310.56;;;9.02;100.00
20019;BME280;10170;42.502;26.526;2022-11-15T05:01:15;100321.44;;;9.07;100.00
20019;BME280;10170;42.502;26.526;2022-11-15T05:03:43;100304.03;;;8.90;100.00
20019;BME280;10170;42.502;26.526;2022-11-15T05:06:29;100310.16;;;8.91;100.00
20019;BME280;10170;42.502;26.526;2022-11-15T05:08:56;100307.53;;;8.91;100.00
20019;BME280;10170;42.502;26.526;2022-11-15T05:11:23;100304.41;;;8.87;100.00
20019;BME280;10170;42.502;26.526;2022-11-15T05:13:50;100323.16;;;9.00;100.00
20019;BME280;10170;42.502;26.526;2022-11-15T05:16:17;100330.69;;;9.11;100.00
20019;BME280;10170;42.502;26.526;2022-11-15T05:18:43;100320.00;;;9.05;100.00
20019;BME280;10170;42.502;26.526;2022-11-15T05:21:14;100332.38;;;9.12;100.00
20019;BME280;10170;42.502;26.526;2022-11-15T05:23:41;100330.50;;;9.13;100.00
20019;BME280;10170;42.502;26.526;2022-11-15T05:26:09;100329.19;;;9.31;100.00
20019;BME280;10170;42.502;26.526;2022-11-15T05:28:36;100332.59;;;9.54;100.00
20019;BME280;10170;42.502;26.526;2022-11-15T05:31:09;100323.00;;;9.53;100.00
20019;BME280;10170;42.502;26.526;2022-11-15T05:33:38;100331.50;;;9.49;100.00
20019;BME280;10170;42.502;26.526;2022-11-15T05:36:41;100334.59;;;9.38;100.00
20019;BME280;10170;42.502;26.526;2022-11-15T05:39:08;100337.44;;;9.36;100.00
20019;BME280;10170;42.502;26.526;2022-11-15T05:41:41;100339.09;;;9.37;100.00
20019;BME280;10170;42.502;26.526;2022-11-15T05:44:13;100334.50;;;9.31;100.00
20019;BME280;10170;42.502;26.526;2022-11-15T05:46:41;100335.47;;;9.16;100.00
20019;BME280;10170;42.502;26.526;2022-11-15T05:49:12;100341.13;;;9.13;100.00
20019;BME280;10170;42.502;26.526;2022-11-15T05:51:41;100339.22;;;9.07;100.00
20019;BME280;10170;42.502;26.526;2022-11-15T05:54:10;100340.06;;;9.36;100.00
20019;BME280;10170;42.502;26.526;2022-11-15T05:56:37;100346.09;;;9.16;100.00
20019;BME280;10170;42.502;26.526;2022-11-15T05:59:04;100354.06;;;9.30;100.00
20019;BME280;10170;42.502;26.526;2022-11-15T06:01:30;100360.00;;;9.32;100.00
20019;BME280;10170;42.502;26.526;2022-11-15T06:03:57;100361.56;;;9.27;100.00
20019;BME280;10170;42.502;26.526;2022-11-15T06:06:24;100355.03;;;9.15;100.00
20019;BME280;10170;42.502;26.526;2022-11-15T06:08:51;100362.38;;;9.27;100.00
20019;BME280;10170;42.502;26.526;2022-11-15T06:11:17;100355.13;;;9.07;100.00
20019;BME280;10170;42.502;26.526;2022-11-15T06:13:44;100350.44;;;9.09;100.00
20019;BME280;10170;42.502;26.526;2022-11-15T06:16:11;100362.09;;;9.22;100.00
20019;BME280;10170;42.502;26.526;2022-11-15T06:18:38;100357.69;;;9.15;100.00
20019;BME280;10170;42.502;26.526;2022-11-15T06:21:05;100365.59;;;9.23;100.00
20019;BME280;10170;42.502;26.526;2022-11-15T06:23:33;100364.53;;;9.32;100.00
20019;BME280;10170;42.502;26.526;2022-11-15T06:26:02;100371.09;;;9.36;100.00
20019;BME280;10170;42.502;26.526;2022-11-15T06:28:31;100371.47;;;9.33;100.00
20019;BME280;10170;42.502;26.526;2022-11-15T06:31:09;100361.00;;;9.17;100.00
20019;BME280;10170;42.502;26.526;2022-11-15T06:33:38;100359.56;;;9.29;100.00
20019;BME280;10170;42.502;26.526;2022-11-15T06:36:10;100357.78;;;9.21;100.00
20019;BME280;10170;42.502;26.526;2022-11-15T06:38:44;100366.88;;;9.27;100.00
20019;BME280;10170;42.502;26.526;2022-11-15T06:41:12;100363.28;;;9.20;100.00
20019;BME280;10170;42.502;26.526;2022-11-15T06:43:40;100352.25;;;9.31;100.00
20019;BME280;10170;42.502;26.526;2022-11-15T06:46:07;100359.31;;;9.38;100.00
20019;BME280;10170;42.502;26.526;2022-11-15T06:48:35;100357.19;;;9.48;100.00
20019;BME280;10170;42.502;26.526;2022-11-15T06:51:03;100360.34;;;9.67;100.00
20019;BME280;10170;42.502;26.526;2022-11-15T06:53:31;100361.53;;;9.64;100.00
20019;BME280;10170;42.502;26.526;2022-11-15T06:56:02;100370.97;;;9.81;100.00
20019;BME280;10170;42.502;26.526;2022-11-15T06:58:30;100369.41;;;9.87;100.00
20019;BME280;10170;42.502;26.526;2022-11-15T07:01:08;100376.66;;;10.07;100.00
20019;BME280;10170;42.502;26.526;2022-11-15T07:03:38;100377.47;;;9.93;100.00
20019;BME280;10170;42.502;26.526;2022-11-15T07:06:05;100381.66;;;9.88;100.00
20019;BME280;10170;42.502;26.526;2022-11-15T07:08:33;100377.13;;;9.96;100.00
20019;BME280;10170;42.502;26.526;2022-11-15T07:11:03;100372.44;;;9.84;100.00
20019;BME280;10170;42.502;26.526;2022-11-15T07:13:31;100380.88;;;9.87;100.00
20019;BME280;10170;42.502;26.526;2022-11-15T07:16:04;100374.00;;;9.93;100.00
20019;BME280;10170;42.502;26.526;2022-11-15T07:18:34;100377.75;;;10.13;100.00
20019;BME280;10170;42.502;26.526;2022-11-15T07:21:02;100377.91;;;9.97;100.00
20019;BME280;10170;42.502;26.526;2022-11-15T07:23:30;100381.97;;;10.07;100.00
20019;BME280;10170;42.502;26.526;2022-11-15T07:25:58;100385.63;;;10.06;100.00
20019;BME280;10170;42.502;26.526;2022-11-15T07:28:25;100379.78;;;10.11;100.00
20019;BME280;10170;42.502;26.526;2022-11-15T07:30:53;100383.56;;;10.16;100.00
20019;BME280;10170;42.502;26.526;2022-11-15T07:33:20;100377.94;;;10.26;100.00
20019;BME280;10170;42.502;26.526;2022-11-15T07:35:47;100389.59;;;10.10;100.00
20019;BME280;10170;42.502;26.526;2022-11-15T07:38:17;100372.28;;;10.14;100.00
20019;BME280;10170;42.502;26.526;2022-11-15T07:40:47;100370.75;;;10.41;100.00
20019;BME280;10170;42.502;26.526;2022-11-15T07:43:13;100371.53;;;10.56;100.00
20019;BME280;10170;42.502;26.526;2022-11-15T07:45:42;100378.16;;;10.45;100.00
20019;BME280;10170;42.502;26.526;2022-11-15T07:48:09;100371.22;;;10.44;100.00
20019;BME280;10170;42.502;26.526;2022-11-15T07:50:37;100364.38;;;10.21;100.00
20019;BME280;10170;42.502;26.526;2022-11-15T07:53:03;100362.25;;;10.31;100.00
20019;BME280;10170;42.502;26.526;2022-11-15T07:55:30;100347.09;;;10.46;100.00
20019;BME280;10170;42.502;26.526;2022-11-15T07:58:04;100349.41;;;10.34;100.00
20019;BME280;10170;42.502;26.526;2022-11-15T08:00:31;100362.13;;;10.75;100.00
20019;BME280;10170;42.502;26.526;2022-11-15T08:03:06;100370.44;;;10.86;100.00
20019;BME280;10170;42.502;26.526;2022-11-15T08:05:34;100366.25;;;10.98;100.00
20019;BME280;10170;42.502;26.526;2022-11-15T08:08:02;100365.03;;;11.22;100.00
20019;BME280;10170;42.502;26.526;2022-11-15T08:10:29;100369.47;;;11.15;100.00
20019;BME280;10170;42.502;26.526;2022-11-15T08:13:07;100369.97;;;11.25;100.00
20019;BME280;10170;42.502;26.526;2022-11-15T08:15:35;100377.03;;;11.39;100.00
20019;BME280;10170;42.502;26.526;2022-11-15T08:18:08;100379.16;;;11.01;100.00
20019;BME280;10170;42.502;26.526;2022-11-15T08:20:35;100387.41;;;11.27;100.00
20019;BME280;10170;42.502;26.526;2022-11-15T08:23:03;100383.03;;;11.47;100.00
20019;BME280;10170;42.502;26.526;2022-11-15T08:25:32;100381.50;;;11.11;100.00
20019;BME280;10170;42.502;26.526;2022-11-15T08:28:02;100365.59;;;11.17;100.00
20019;BME280;10170;42.502;26.526;2022-11-15T08:30:30;100376.34;;;11.30;100.00
20019;BME280;10170;42.502;26.526;2022-11-15T08:32:58;100380.81;;;11.72;100.00
20019;BME280;10170;42.502;26.526;2022-11-15T08:35:24;100380.59;;;11.74;100.00
20019;BME280;10170;42.502;26.526;2022-11-15T08:37:54;100364.66;;;11.52;100.00
20019;BME280;10170;42.502;26.526;2022-11-15T08:40:21;100379.56;;;11.47;100.00
20019;BME280;10170;42.502;26.526;2022-11-15T08:42:49;100376.19;;;11.38;100.00
20019;BME280;10170;42.502;26.526;2022-11-15T08:45:16;100366.66;;;11.72;100.00
20019;BME280;10170;42.502;26.526;2022-11-15T08:47:44;100370.84;;;11.87;100.00
20019;BME280;10170;42.502;26.526;2022-11-15T08:50:19;100356.63;;;11.74;100.00
20019;BME280;10170;42.502;26.526;2022-11-15T08:52:45;100361.91;;;11.67;100.00
20019;BME280;10170;42.502;26.526;2022-11-15T08:55:14;100350.72;;;11.50;100.00
20019;BME280;10170;42.502;26.526;2022-11-15T08:57:43;100349.34;;;11.61;100.00
20019;BME280;10170;42.502;26.526;2022-11-15T09:00:10;100338.81;;;11.74;100.00
20019;BME280;10170;42.502;26.526;2022-11-15T09:02:39;100346.16;;;12.06;100.00
20019;BME280;10170;42.502;26.526;2022-11-15T09:05:06;100342.84;;;12.04;100.00
20019;BME280;10170;42.502;26.526;2022-11-15T09:07:33;100335.22;;;11.95;100.00
20019;BME280;10170;42.502;26.526;2022-11-15T09:10:02;100342.31;;;12.15;100.00
20019;BME280;10170;42.502;26.526;2022-11-15T09:12:29;100340.00;;;12.12;100.00
20019;BME280;10170;42.502;26.526;2022-11-15T09:14:56;100336.91;;;12.02;100.00
20019;BME280;10170;42.502;26.526;2022-11-15T09:17:22;100332.91;;;11.85;100.00
20019;BME280;10170;42.502;26.526;2022-11-15T09:19:50;100329.25;;;11.93;100.00
20019;BME280;10170;42.502;26.526;2022-11-15T09:22:17;100314.19;;;12.19;100.00
20019;BME280;10170;42.502;26.526;2022-11-15T09:24:44;100331.28;;;12.31;100.00
20019;BME280;10170;42.502;26.526;2022-11-15T09:27:11;100319.38;;;12.34;100.00
20019;BME280;10170;42.502;26.526;2022-11-15T09:29:39;100317.00;;;12.65;100.00
20019;BME280;10170;42.502;26.526;2022-11-15T09:32:05;100313.72;;;12.63;100.00
20019;BME280;10170;42.502;26.526;2022-11-15T09:34:32;100316.28;;;12.30;100.00
20019;BME280;10170;42.502;26.526;2022-11-15T09:36:59;100318.78;;;12.38;100.00
20019;BME280;10170;42.502;26.526;2022-11-15T09:39:25;100312.03;;;12.49;100.00
20019;BME280;10170;42.502;26.526;2022-11-15T09:42:21;100308.75;;;12.47;100.00
20019;BME280;10170;42.502;26.526;2022-11-15T09:45:08;100304.63;;;12.31;100.00
20019;BME280;10170;42.502;26.526;2022-11-15T09:48:04;100302.88;;;12.11;100.00
20019;BME280;10170;42.502;26.526;2022-11-15T09:50:39;100302.38;;;12.48;100.00
20019;BME280;10170;42.502;26.526;2022-11-15T09:53:27;100300.16;;;12.64;100.00
20019;BME280;10170;42.502;26.526;2022-11-15T09:56:28;100289.28;;;12.86;100.00
20019;BME280;10170;42.502;26.526;2022-11-15T10:01:41;100228.72;;;12.47;100.00
20019;BME280;10170;42.502;26.526;2022-11-15T10:04:11;100282.50;;;12.77;100.00
20019;BME280;10170;42.502;26.526;2022-11-15T10:06:44;100269.19;;;12.70;100.00
20019;BME280;10170;42.502;26.526;2022-11-15T10:09:20;100276.53;;;12.55;100.00
20019;BME280;10170;42.502;26.526;2022-11-15T10:11:49;100265.88;;;12.42;100.00
20019;BME280;10170;42.502;26.526;2022-11-15T10:14:24;100267.53;;;12.69;100.00
20019;BME280;10170;42.502;26.526;2022-11-15T10:25:29;100239.63;;;12.85;100.00
20019;BME280;10170;42.502;26.526;2022-11-15T10:28:00;100250.69;;;12.62;100.00
20019;BME280;10170;42.502;26.526;2022-11-15T10:30:33;100240.41;;;12.39;100.00
20019;BME280;10170;42.502;26.526;2022-11-15T10:36:15;100241.88;;;12.68;100.00
20019;BME280;10170;42.502;26.526;2022-11-15T10:44:26;100224.63;;;12.90;100.00
20019;BME280;10170;42.502;26.526;2022-11-15T10:49:27;100213.53;;;13.13;100.00
20019;BME280;10170;42.502;26.526;2022-11-15T10:54:36;100210.06;;;12.99;100.00
20019;BME280;10170;42.502;26.526;2022-11-15T10:57:14;100215.38;;;13.25;100.00
20019;BME280;10170;42.502;26.526;2022-11-15T10:59:46;100205.94;;;13.03;100.00
20019;BME280;10170;42.502;26.526;2022-11-15T11:05:04;100205.34;;;12.62;100.00
20019;BME280;10170;42.502;26.526;2022-11-15T11:07:34;100198.34;;;12.81;100.00
20019;BME280;10170;42.502;26.526;2022-11-15T11:10:24;100201.84;;;13.07;100.00
20019;BME280;10170;42.502;26.526;2022-11-15T11:13:26;100195.50;;;13.08;100.00
20019;BME280;10170;42.502;26.526;2022-11-15T11:18:49;100186.06;;;12.80;100.00
20019;BME280;10170;42.502;26.526;2022-11-15T11:24:36;100177.41;;;12.71;100.00
20019;BME280;10170;42.502;26.526;2022-11-15T11:29:45;100145.81;;;12.35;100.00
20019;BME280;10170;42.502;26.526;2022-11-15T11:35:13;100166.09;;;13.02;100.00
20019;BME280;10170;42.502;26.526;2022-11-15T11:37:55;100162.03;;;12.73;100.00
20019;BME280;10170;42.502;26.526;2022-11-15T11:40:37;100155.25;;;12.64;100.00
20019;BME280;10170;42.502;26.526;2022-11-15T11:49:01;100148.50;;;12.61;100.00
20019;BME280;10170;42.502;26.526;2022-11-15T11:51:45;100147.44;;;12.89;100.00
20019;BME280;10170;42.502;26.526;2022-11-15T11:57:16;100132.63;;;13.06;100.00
20019;BME280;10170;42.502;26.526;2022-11-15T11:59:55;100125.84;;;13.10;100.00
20019;BME280;10170;42.502;26.526;2022-11-15T12:05:32;100121.75;;;13.01;100.00
20019;BME280;10170;42.502;26.526;2022-11-15T12:08:15;100124.22;;;12.89;100.00
20019;BME280;10170;42.502;26.526;2022-11-15T12:10:50;100119.94;;;12.75;100.00
20019;BME280;10170;42.502;26.526;2022-11-15T12:13:23;100102.28;;;12.81;100.00
20019;BME280;10170;42.502;26.526;2022-11-15T12:15:58;100112.31;;;13.05;100.00
20019;BME280;10170;42.502;26.526;2022-11-15T12:18:34;100113.41;;;12.51;100.00
20019;BME280;10170;42.502;26.526;2022-11-15T12:21:13;100110.34;;;12.48;100.00
20019;BME280;10170;42.502;26.526;2022-11-15T12:24:05;100105.38;;;12.71;100.00
20019;BME280;10170;42.502;26.526;2022-11-15T12:26:41;100102.31;;;12.61;100.00
20019;BME280;10170;42.502;26.526;2022-11-15T12:29:19;100102.75;;;12.45;100.00
20019;BME280;10170;42.502;26.526;2022-11-15T12:31:51;100096.59;;;12.44;100.00
20019;BME280;10170;42.502;26.526;2022-11-15T12:36:50;100099.66;;;12.74;100.00
20019;BME280;10170;42.502;26.526;2022-11-15T12:39:18;100087.34;;;12.60;100.00
20019;BME280;10170;42.502;26.526;2022-11-15T12:47:01;100090.19;;;12.71;100.00
20019;BME280;10170;42.502;26.526;2022-11-15T13:04:55;100084.91;;;12.45;100.00
20019;BME280;10170;42.502;26.526;2022-11-15T13:20:18;100057.75;;;12.74;100.00
20019;BME280;10170;42.502;26.526;2022-11-15T13:30:53;100052.91;;;12.45;100.00
20019;BME280;10170;42.502;26.526;2022-11-15T13:33:23;100056.81;;;12.30;100.00
20019;BME280;10170;42.502;26.526;2022-11-15T13:35:56;100054.16;;;12.17;100.00
20019;BME280;10170;42.502;26.526;2022-11-15T13:38:32;100031.81;;;12.05;100.00
20019;BME280;10170;42.502;26.526;2022-11-15T13:41:13;100037.53;;;12.34;100.00
20019;BME280;10170;42.502;26.526;2022-11-15T13:43:40;100035.91;;;12.27;100.00
20019;BME280;10170;42.502;26.526;2022-11-15T13:46:22;100031.81;;;12.18;100.00
20019;BME280;10170;42.502;26.526;2022-11-15T13:49:09;100027.91;;;11.94;100.00
20019;BME280;10170;42.502;26.526;2022-11-15T13:51:43;100029.56;;;12.15;100.00
20019;BME280;10170;42.502;26.526;2022-11-15T13:57:08;100023.34;;;12.47;100.00
20019;BME280;10170;42.502;26.526;2022-11-15T13:59:54;100012.13;;;12.12;100.00
20019;BME280;10170;42.502;26.526;2022-11-15T14:02:29;100012.56;;;12.03;100.00
20019;BME280;10170;42.502;26.526;2022-11-15T14:05:17;100009.88;;;12.09;100.00
20019;BME280;10170;42.502;26.526;2022-11-15T14:07:56;100001.47;;;11.93;100.00
20019;BME280;10170;42.502;26.526;2022-11-15T14:10:29;100019.09;;;12.00;100.00
20019;BME280;10170;42.502;26.526;2022-11-15T14:12:57;100011.94;;;12.07;100.00
20019;BME280;10170;42.502;26.526;2022-11-15T14:15:34;100008.84;;;12.04;100.00
20019;BME280;10170;42.502;26.526;2022-11-15T14:18:01;100009.47;;;11.86;100.00
20019;BME280;10170;42.502;26.526;2022-11-15T14:20:32;100008.44;;;12.00;100.00
20019;BME280;10170;42.502;26.526;2022-11-15T14:23:02;99989.19;;;11.79;100.00
20019;BME280;10170;42.502;26.526;2022-11-15T14:25:32;99989.38;;;11.71;100.00
20019;BME280;10170;42.502;26.526;2022-11-15T14:30:42;99987.50;;;11.58;100.00
20019;BME280;10170;42.502;26.526;2022-11-15T14:35:45;99982.22;;;11.78;100.00
20019;BME280;10170;42.502;26.526;2022-11-15T14:38:11;99969.47;;;11.60;100.00
20019;BME280;10170;42.502;26.526;2022-11-15T14:40:38;99973.38;;;11.64;100.00
20019;BME280;10170;42.502;26.526;2022-11-15T14:43:08;99961.47;;;11.60;100.00
20019;BME280;10170;42.502;26.526;2022-11-15T14:45:35;99960.88;;;11.51;100.00
20019;BME280;10170;42.502;26.526;2022-11-15T14:48:02;99957.78;;;11.54;100.00
20019;BME280;10170;42.502;26.526;2022-11-15T14:50:29;99956.94;;;11.28;100.00
20019;BME280;10170;42.502;26.526;2022-11-15T14:52:55;99947.13;;;11.22;100.00
20019;BME280;10170;42.502;26.526;2022-11-15T14:55:26;99950.59;;;11.22;100.00
20019;BME280;10170;42.502;26.526;2022-11-15T14:57:55;99946.25;;;11.08;100.00
20019;BME280;10170;42.502;26.526;2022-11-15T15:00:22;99946.28;;;11.15;100.00
20019;BME280;10170;42.502;26.526;2022-11-15T15:02:51;99952.66;;;11.27;100.00
20019;BME280;10170;42.502;26.526;2022-11-15T15:05:27;99943.63;;;11.15;100.00
20019;BME280;10170;42.502;26.526;2022-11-15T15:07:56;99949.72;;;10.96;100.00
20019;BME280;10170;42.502;26.526;2022-11-15T15:10:24;99948.50;;;11.05;100.00
20019;BME280;10170;42.502;26.526;2022-11-15T15:13:20;99941.56;;;11.17;100.00
20019;BME280;10170;42.502;26.526;2022-11-15T15:15:48;99929.25;;;10.90;100.00